Time;durP1;ratioP1;P1;durP2;ratioP2;P2;SDS_P1;SDS_P2;PMS_P1;PMS_P2;Temp;Humidity;BMP_temperature;BMP_pressure;BME280_temperature;BME280_humidity;BME280_pressure;Samples;Min_cycle;Max_cycle;Signal;HPM_P1;HPM_P2
2021/12/27 00:00:22;;;;;;;21.80;11.82;;;-0.80;99.90;;;;;;5077528;28;20052;-60
2021/12/27 00:02:50;;;;;;;23.10;12.25;;;-0.80;99.90;;;;;;5077833;28;20044;-61
2021/12/27 00:05:16;;;;;;;26.08;13.45;;;-0.80;99.90;;;;;;5077823;28;20055;-61
2021/12/27 00:07:44;;;;;;;24.90;12.77;;;-0.80;99.90;;;;;;5076343;28;20071;-61
2021/12/27 00:10:10;;;;;;;23.45;12.35;;;-0.80;99.90;;;;;;5076220;28;20048;-61
2021/12/27 00:12:36;;;;;;;22.42;11.70;;;-0.80;99.90;;;;;;5077733;28;20047;-61
2021/12/27 00:15:03;;;;;;;20.80;12.10;;;-0.80;99.90;;;;;;5077141;28;20075;-61
2021/12/27 00:17:29;;;;;;;23.02;13.32;;;-0.80;99.90;;;;;;5077224;28;20057;-62
2021/12/27 00:19:56;;;;;;;24.40;12.75;;;-0.80;99.90;;;;;;5076258;28;20047;-61
2021/12/27 00:22:22;;;;;;;19.77;11.57;;;-0.80;99.90;;;;;;5059638;28;20412;-61
2021/12/27 00:24:48;;;;;;;22.20;13.00;;;-0.80;99.90;;;;;;5075874;28;20056;-61
2021/12/27 00:27:17;;;;;;;24.23;14.00;;;-0.80;99.90;;;;;;5059562;28;20044;-61
2021/12/27 00:29:44;;;;;;;23.50;13.05;;;-0.80;99.90;;;;;;5075986;28;20592;-61
2021/12/27 00:32:11;;;;;;;24.73;13.20;;;-0.80;99.90;;;;;;5077277;28;20094;-61
2021/12/27 00:34:36;;;;;;;24.67;12.75;;;-0.80;99.90;;;;;;5075690;28;20045;-61
2021/12/27 00:37:04;;;;;;;25.10;13.75;;;-0.80;99.90;;;;;;5076986;28;20050;-61
2021/12/27 00:39:31;;;;;;;23.38;12.27;;;-0.80;99.90;;;;;;5076994;28;20051;-62
2021/12/27 00:42:00;;;;;;;21.92;13.20;;;-0.80;99.90;;;;;;5077602;28;20044;-61
2021/12/27 00:44:27;;;;;;;23.33;13.13;;;-0.90;99.90;;;;;;5077266;28;20092;-60
2021/12/27 00:46:54;;;;;;;27.13;14.95;;;-0.90;99.90;;;;;;5076155;28;20056;-62
2021/12/27 00:49:20;;;;;;;25.73;12.68;;;-0.90;99.90;;;;;;5075987;28;20083;-61
2021/12/27 00:51:45;;;;;;;25.63;14.32;;;-0.90;99.90;;;;;;5095663;28;20048;-61
2021/12/27 00:54:11;;;;;;;21.95;12.52;;;-0.90;99.90;;;;;;5092917;28;20079;-61
2021/12/27 00:56:38;;;;;;;26.67;13.20;;;-0.80;99.90;;;;;;5077063;28;20040;-61
2021/12/27 00:59:03;;;;;;;22.45;12.57;;;-0.90;99.90;;;;;;5077253;28;20047;-61
2021/12/27 01:01:29;;;;;;;25.35;12.75;;;-1.00;99.90;;;;;;5076861;28;20100;-61
2021/12/27 01:03:55;;;;;;;23.88;12.90;;;-1.00;99.90;;;;;;5077284;28;20040;-61
2021/12/27 01:06:21;;;;;;;21.35;12.55;;;-1.00;99.90;;;;;;5076465;28;20049;-61
2021/12/27 01:08:47;;;;;;;22.13;12.40;;;-1.00;99.90;;;;;;5075707;28;20128;-61
2021/12/27 01:11:24;;;;;;;25.48;14.02;;;-1.00;99.90;;;;;;5076367;28;20052;-61
2021/12/27 01:16:33;;;;;;;23.02;12.55;;;-0.90;99.90;;;;;;5076832;28;20057;-60
2021/12/27 01:18:59;;;;;;;27.15;13.68;;;-1.00;99.90;;;;;;5075769;28;20044;-61
2021/12/27 01:21:25;;;;;;;28.67;14.52;;;-0.90;99.90;;;;;;5075571;28;20044;-61
2021/12/27 01:23:55;;;;;;;24.58;12.43;;;-0.90;99.90;;;;;;5076852;28;20044;-61
2021/12/27 01:26:21;;;;;;;24.05;12.52;;;-0.90;99.90;;;;;;5076874;28;20106;-61
2021/12/27 01:28:47;;;;;;;22.23;13.20;;;-0.90;99.90;;;;;;5076934;28;20041;-61
2021/12/27 01:31:13;;;;;;;21.55;12.82;;;-0.90;99.90;;;;;;5076804;28;20080;-61
2021/12/27 01:33:44;;;;;;;23.77;14.05;;;-0.90;99.90;;;;;;5077030;28;20112;-61
2021/12/27 01:36:10;;;;;;;21.73;12.68;;;-0.90;99.90;;;;;;5076643;28;20064;-60
2021/12/27 01:38:37;;;;;;;23.65;13.27;;;-0.90;99.90;;;;;;5076438;28;20048;-62
2021/12/27 01:41:04;;;;;;;20.90;12.18;;;-0.90;99.90;;;;;;5078371;28;20040;-62
2021/12/27 01:43:32;;;;;;;24.77;13.40;;;-0.90;99.90;;;;;;5080479;28;20443;-61
2021/12/27 01:46:08;;;;;;;20.80;12.68;;;-1.00;99.90;;;;;;5080355;28;20059;-62
2021/12/27 01:48:38;;;;;;;22.58;12.75;;;-0.90;99.90;;;;;;5080339;28;20312;-62
2021/12/27 01:51:08;;;;;;;24.58;13.40;;;-0.90;99.90;;;;;;5091677;28;20043;-62
2021/12/27 01:53:36;;;;;;;24.33;13.23;;;-0.90;99.90;;;;;;5098965;28;20642;-61
2021/12/27 01:56:03;;;;;;;21.20;13.70;;;-0.90;99.90;;;;;;5080220;28;20524;-61
2021/12/27 01:58:30;;;;;;;22.48;12.95;;;-0.90;99.90;;;;;;5079421;28;20053;-62
2021/12/27 02:00:58;;;;;;;22.42;12.75;;;-0.90;99.90;;;;;;5079806;28;20040;-61
2021/12/27 02:03:27;;;;;;;26.80;14.00;;;-0.80;99.90;;;;;;5079801;28;20072;-61
2021/12/27 02:05:54;;;;;;;19.55;12.23;;;-0.90;99.90;;;;;;5079771;28;20056;-61
2021/12/27 02:08:20;;;;;;;24.83;13.23;;;-0.90;99.90;;;;;;5078344;28;20045;-61
2021/12/27 02:10:46;;;;;;;23.25;12.52;;;-0.90;99.90;;;;;;5079001;28;20428;-61
2021/12/27 02:13:12;;;;;;;22.98;13.43;;;-1.00;99.90;;;;;;5079355;28;20116;-61
2021/12/27 02:15:41;;;;;;;22.27;14.10;;;-1.00;99.90;;;;;;5077932;28;20096;-61
2021/12/27 02:18:09;;;;;;;23.65;13.40;;;-1.00;99.90;;;;;;5079979;28;20486;-61
2021/12/27 02:20:37;;;;;;;26.30;14.15;;;-1.00;99.90;;;;;;5079408;28;20056;-61
2021/12/27 02:23:10;;;;;;;23.52;14.27;;;-1.00;99.90;;;;;;5079567;28;20444;-61
2021/12/27 02:25:36;;;;;;;23.33;13.32;;;-1.00;99.90;;;;;;5079077;28;20047;-61
2021/12/27 02:28:06;;;;;;;23.02;13.45;;;-1.00;99.90;;;;;;5077789;28;20048;-61
2021/12/27 02:30:33;;;;;;;24.00;12.63;;;-1.00;99.90;;;;;;5078533;28;20044;-61
2021/12/27 02:33:05;;;;;;;22.23;12.43;;;-1.00;99.90;;;;;;5078854;28;20053;-61
2021/12/27 02:35:37;;;;;;;23.88;13.73;;;-1.00;99.90;;;;;;5079114;28;20053;-61
2021/12/27 02:38:05;;;;;;;25.13;13.98;;;-1.00;99.90;;;;;;5077748;28;20112;-61
2021/12/27 02:40:32;;;;;;;23.10;13.75;;;-1.00;99.90;;;;;;5078626;28;20047;-61
2021/12/27 02:43:04;;;;;;;22.63;13.02;;;-1.00;99.90;;;;;;5077364;28;20053;-61
2021/12/27 02:45:32;;;;;;;26.58;14.00;;;-0.90;99.90;;;;;;5078320;28;20059;-61
2021/12/27 02:47:58;;;;;;;22.73;12.80;;;-1.00;99.90;;;;;;5078662;28;20044;-61
2021/12/27 02:50:26;;;;;;;26.25;13.27;;;-1.00;99.90;;;;;;5085440;28;20040;-61
2021/12/27 02:52:53;;;;;;;28.15;14.60;;;-1.00;99.90;;;;;;5098181;28;20059;-61
2021/12/27 02:55:19;;;;;;;22.88;13.23;;;-0.90;99.90;;;;;;5083210;28;20060;-61
2021/12/27 02:57:47;;;;;;;22.05;13.10;;;-0.90;99.90;;;;;;5077195;28;20140;-61
2021/12/27 03:00:27;;;;;;;27.08;13.48;;;-0.80;99.90;;;;;;5078331;28;20108;-61
2021/12/27 03:02:55;;;;;;;25.65;14.00;;;-0.80;99.90;;;;;;5078110;28;20037;-61
2021/12/27 03:05:23;;;;;;;23.73;15.15;;;-0.80;99.90;;;;;;5078509;28;20044;-61
2021/12/27 03:07:50;;;;;;;24.73;14.18;;;-0.80;99.90;;;;;;5078509;28;20063;-60
2021/12/27 03:10:19;;;;;;;23.10;14.80;;;-0.80;99.90;;;;;;5078211;28;20074;-61
2021/12/27 03:12:46;;;;;;;24.98;14.35;;;-0.80;99.90;;;;;;5078080;28;20040;-61
2021/12/27 03:15:14;;;;;;;26.98;16.08;;;-0.80;99.90;;;;;;5077601;28;20535;-61
2021/12/27 03:17:42;;;;;;;25.20;14.90;;;-0.80;99.90;;;;;;5077928;28;20108;-61
2021/12/27 03:20:09;;;;;;;27.50;15.93;;;-0.80;99.90;;;;;;5076432;28;20382;-61
2021/12/27 03:22:37;;;;;;;25.52;15.40;;;-0.80;99.90;;;;;;5077971;28;20102;-61
2021/12/27 03:25:04;;;;;;;26.30;13.75;;;-0.80;99.90;;;;;;5076703;28;20053;-61
2021/12/27 03:27:30;;;;;;;26.98;16.38;;;-0.80;99.90;;;;;;5059795;28;20493;-61
2021/12/27 03:29:56;;;;;;;27.10;15.68;;;-0.80;99.90;;;;;;5077491;28;20424;-61
2021/12/27 03:32:22;;;;;;;27.67;15.77;;;-0.80;99.90;;;;;;5077694;28;20100;-61
2021/12/27 03:34:58;;;;;;;27.20;16.27;;;-0.80;99.90;;;;;;5076117;28;20127;-61
2021/12/27 03:37:24;;;;;;;26.60;14.57;;;-0.80;99.90;;;;;;5077707;28;20066;-61
2021/12/27 03:39:50;;;;;;;25.75;15.77;;;-0.80;99.90;;;;;;5078027;28;20570;-61
2021/12/27 03:42:17;;;;;;;24.80;15.35;;;-0.80;99.90;;;;;;5077849;28;20563;-61
2021/12/27 03:44:44;;;;;;;27.70;15.07;;;-0.70;99.90;;;;;;5059485;28;20510;-61
2021/12/27 03:47:10;;;;;;;26.27;14.57;;;-0.70;99.90;;;;;;5077667;28;20042;-60
2021/12/27 03:49:37;;;;;;;24.45;14.88;;;-0.70;99.90;;;;;;5060243;28;20412;-61
2021/12/27 03:52:04;;;;;;;25.88;15.48;;;-0.70;99.90;;;;;;5096398;28;20040;-61
2021/12/27 03:54:29;;;;;;;26.80;15.25;;;-0.70;99.90;;;;;;5090074;28;20045;-61
2021/12/27 03:56:55;;;;;;;27.85;14.50;;;-0.70;99.90;;;;;;5076172;28;20059;-60
2021/12/27 03:59:34;;;;;;;25.73;14.27;;;-0.70;99.90;;;;;;5077649;28;20050;-61
2021/12/27 04:02:00;;;;;;;27.55;15.68;;;-0.60;99.90;;;;;;5077001;28;20098;-61
2021/12/27 04:04:26;;;;;;;25.98;15.23;;;-0.60;99.90;;;;;;5077026;28;20048;-60
2021/12/27 04:06:52;;;;;;;30.25;16.45;;;-0.60;99.90;;;;;;5076992;28;20055;-61
2021/12/27 04:09:19;;;;;;;26.65;16.15;;;-0.60;99.90;;;;;;5077149;28;20040;-61
2021/12/27 04:11:45;;;;;;;28.75;16.13;;;-0.50;99.90;;;;;;5076993;28;20040;-61
2021/12/27 04:14:11;;;;;;;24.85;15.02;;;-0.60;99.90;;;;;;5077059;28;20047;-61
2021/12/27 04:16:37;;;;;;;27.52;14.77;;;-0.60;99.90;;;;;;5075595;28;20079;-61
2021/12/27 04:19:03;;;;;;;26.52;15.90;;;-0.60;99.90;;;;;;5076843;28;20563;-61
2021/12/27 04:21:30;;;;;;;31.40;16.35;;;-0.60;99.90;;;;;;5076959;28;20052;-61
2021/12/27 04:23:56;;;;;;;26.98;16.17;;;-0.60;99.90;;;;;;5076675;28;20646;-61
2021/12/27 04:26:22;;;;;;;27.52;16.30;;;-0.50;99.90;;;;;;5076999;28;20075;-61
2021/12/27 04:28:52;;;;;;;27.30;16.45;;;-0.60;99.90;;;;;;5077164;28;20455;-61
2021/12/27 04:31:17;;;;;;;28.30;14.38;;;-0.50;99.90;;;;;;5076934;28;20558;-62
2021/12/27 04:33:44;;;;;;;30.10;17.02;;;-0.50;99.90;;;;;;5077297;28;20044;-61
2021/12/27 04:36:10;;;;;;;28.67;15.85;;;-0.50;99.90;;;;;;5076914;28;20048;-61
2021/12/27 04:38:36;;;;;;;30.45;16.40;;;-0.50;99.90;;;;;;5076830;28;20041;-62
2021/12/27 04:41:05;;;;;;;30.65;17.08;;;-0.50;99.90;;;;;;5075267;28;20435;-61
2021/12/27 04:43:31;;;;;;;30.15;18.05;;;-0.50;99.90;;;;;;5074870;28;20045;-61
2021/12/27 04:45:57;;;;;;;30.83;17.17;;;-0.50;99.90;;;;;;5075608;28;20503;-62
2021/12/27 04:48:25;;;;;;;29.45;17.05;;;-0.50;99.90;;;;;;5076675;28;20477;-62
2021/12/27 04:50:52;;;;;;;31.90;19.08;;;-0.50;99.90;;;;;;5088078;28;20386;-62
2021/12/27 04:53:18;;;;;;;33.50;18.10;;;-0.50;99.90;;;;;;5096914;28;20050;-62
2021/12/27 04:55:45;;;;;;;29.48;18.27;;;-0.50;99.90;;;;;;5078840;28;20141;-61
2021/12/27 04:58:13;;;;;;;29.48;17.05;;;-0.50;99.90;;;;;;5076737;28;20053;-62
2021/12/27 05:00:39;;;;;;;31.27;17.45;;;-0.50;99.90;;;;;;5076833;28;20528;-61
2021/12/27 05:03:05;;;;;;;30.10;17.08;;;-0.50;99.90;;;;;;5075408;28;20044;-61
2021/12/27 05:05:32;;;;;;;28.20;17.23;;;-0.50;99.90;;;;;;5076941;28;20100;-62
2021/12/27 05:07:58;;;;;;;29.90;17.08;;;-0.50;99.90;;;;;;5076741;28;20060;-62
2021/12/27 05:10:26;;;;;;;36.55;19.60;;;-0.50;99.90;;;;;;5076550;28;20044;-62
2021/12/27 05:12:52;;;;;;;36.90;19.67;;;-0.40;99.90;;;;;;5076413;28;20048;-61
2021/12/27 05:15:18;;;;;;;32.17;18.98;;;-0.50;99.90;;;;;;5078516;28;20084;-61
2021/12/27 05:17:43;;;;;;;28.45;17.50;;;-0.40;99.90;;;;;;5080339;28;20044;-61
2021/12/27 05:20:10;;;;;;;31.52;17.98;;;-0.40;99.90;;;;;;5080409;28;20910;-62
2021/12/27 05:22:37;;;;;;;34.58;17.75;;;-0.40;99.90;;;;;;5079185;28;20063;-62
2021/12/27 05:25:04;;;;;;;30.75;17.83;;;-0.40;99.90;;;;;;5079731;28;20548;-61
2021/12/27 05:27:29;;;;;;;31.98;17.90;;;-0.40;99.90;;;;;;5079473;28;20037;-61
2021/12/27 05:29:55;;;;;;;28.35;17.20;;;-0.30;99.90;;;;;;5080586;28;20059;-62
2021/12/27 05:32:21;;;;;;;30.17;17.35;;;-0.30;99.90;;;;;;5080660;28;20044;-62
2021/12/27 05:34:47;;;;;;;32.92;17.88;;;-0.30;99.90;;;;;;5080643;28;20072;-62
2021/12/27 05:37:13;;;;;;;33.15;18.35;;;-0.20;99.90;;;;;;5080314;28;20108;-61
2021/12/27 05:39:39;;;;;;;32.42;18.25;;;-0.20;99.90;;;;;;5079129;28;20045;-61
2021/12/27 05:42:05;;;;;;;31.92;17.85;;;-0.30;99.90;;;;;;5080796;28;20040;-62
2021/12/27 05:44:31;;;;;;;34.95;18.95;;;-0.30;99.90;;;;;;5080354;28;20048;-61
2021/12/27 05:46:57;;;;;;;34.25;20.02;;;-0.30;99.90;;;;;;5079314;28;20101;-62
2021/12/27 05:49:23;;;;;;;34.83;20.27;;;-0.40;99.90;;;;;;5080271;28;20732;-61
2021/12/27 05:51:50;;;;;;;37.22;19.60;;;-0.30;99.90;;;;;;5081151;28;20385;-61
2021/12/27 05:54:17;;;;;;;36.70;20.90;;;-0.40;99.90;;;;;;5094275;28;20573;-61
2021/12/27 05:56:43;;;;;;;39.55;20.45;;;-0.40;99.90;;;;;;5080401;28;20044;-62
2021/12/27 05:59:10;;;;;;;35.00;19.90;;;-0.40;99.90;;;;;;5080504;28;20044;-62
2021/12/27 06:01:36;;;;;;;38.65;21.52;;;-0.40;99.90;;;;;;5078720;28;20055;-61
2021/12/27 06:04:02;;;;;;;44.70;20.60;;;-0.40;99.90;;;;;;5080305;28;20063;-61
2021/12/27 06:06:28;;;;;;;40.53;21.15;;;-0.30;99.90;;;;;;5079897;28;20452;-62
2021/12/27 06:08:54;;;;;;;36.75;21.42;;;-0.30;99.90;;;;;;5079822;28;20032;-62
2021/12/27 06:11:20;;;;;;;38.15;20.33;;;-0.30;99.90;;;;;;5079584;28;20056;-61
2021/12/27 06:13:46;;;;;;;39.42;22.58;;;-0.30;99.90;;;;;;5079707;28;20108;-62
2021/12/27 06:16:13;;;;;;;44.75;23.67;;;-0.30;99.90;;;;;;5079789;28;20060;-61
2021/12/27 06:18:39;;;;;;;44.90;23.27;;;-0.30;99.90;;;;;;5079866;28;20059;-61
2021/12/27 06:21:05;;;;;;;44.42;24.75;;;-0.30;99.90;;;;;;5079996;28;20044;-62
2021/12/27 06:23:31;;;;;;;44.65;22.02;;;-0.30;99.90;;;;;;5079650;28;20882;-61
2021/12/27 06:25:58;;;;;;;43.45;23.30;;;-0.30;99.90;;;;;;5079287;28;20053;-61
2021/12/27 06:28:24;;;;;;;46.20;24.50;;;-0.30;99.90;;;;;;5077947;28;20048;-61
2021/12/27 06:30:50;;;;;;;46.05;25.70;;;-0.20;99.90;;;;;;5078455;28;20052;-61
2021/12/27 06:33:16;;;;;;;47.42;25.65;;;-0.30;99.90;;;;;;5079544;28;20127;-61
2021/12/27 06:35:42;;;;;;;47.05;23.40;;;-0.30;99.90;;;;;;5079836;28;20064;-61
2021/12/27 06:38:08;;;;;;;47.85;23.98;;;-0.30;99.90;;;;;;5079535;28;20045;-61
2021/12/27 06:40:34;;;;;;;54.55;25.65;;;-0.30;99.90;;;;;;5078184;28;20051;-61
2021/12/27 06:43:00;;;;;;;43.58;24.80;;;-0.20;99.90;;;;;;5079289;28;20040;-62
2021/12/27 06:45:26;;;;;;;42.92;22.63;;;-0.20;99.90;;;;;;5079200;28;20080;-61
2021/12/27 06:47:52;;;;;;;43.67;23.58;;;-0.20;99.90;;;;;;5078626;28;20063;-62
2021/12/27 06:50:23;;;;;;;45.83;23.05;;;-0.30;99.90;;;;;;5083029;28;20040;-62
2021/12/27 06:52:49;;;;;;;40.05;21.95;;;-0.20;99.90;;;;;;5096017;28;20087;-62
2021/12/27 06:55:16;;;;;;;45.83;23.35;;;-0.20;99.90;;;;;;5083530;28;20044;-62
2021/12/27 06:57:42;;;;;;;50.65;24.48;;;-0.30;99.90;;;;;;5074382;28;20717;-62
2021/12/27 07:00:11;;;;;;;41.97;23.60;;;-0.30;99.90;;;;;;5075111;28;20795;-62
2021/12/27 07:02:37;;;;;;;43.33;23.20;;;-0.20;99.90;;;;;;5075304;28;20190;-62
2021/12/27 07:05:04;;;;;;;42.33;21.40;;;-0.20;99.90;;;;;;5075452;28;20056;-65
2021/12/27 07:07:30;;;;;;;45.72;22.45;;;-0.20;99.90;;;;;;5075556;28;20047;-62
2021/12/27 07:09:58;;;;;;;41.90;23.15;;;-0.20;99.90;;;;;;5057596;28;20037;-61
2021/12/27 07:12:24;;;;;;;41.03;22.17;;;-0.10;99.90;;;;;;5075016;28;20469;-62
2021/12/27 07:14:50;;;;;;;44.42;22.90;;;-0.10;99.90;;;;;;5074790;28;20856;-62
2021/12/27 07:17:16;;;;;;;40.90;21.95;;;-0.10;99.90;;;;;;5075226;28;20116;-62
2021/12/27 07:19:43;;;;;;;46.20;22.40;;;-0.10;99.90;;;;;;5073698;28;20048;-62
2021/12/27 07:22:08;;;;;;;45.08;22.50;;;-0.10;99.90;;;;;;5074963;28;20060;-61
2021/12/27 07:24:34;;;;;;;42.53;21.92;;;-0.10;99.90;;;;;;5074761;28;20048;-62
2021/12/27 07:27:00;;;;;;;41.92;22.27;;;-0.20;99.90;;;;;;5057125;28;20136;-61
2021/12/27 07:29:29;;;;;;;39.60;20.98;;;-0.20;99.90;;;;;;5074989;28;20104;-62
2021/12/27 07:31:55;;;;;;;44.28;22.33;;;-0.10;99.90;;;;;;5074984;28;20093;-61
2021/12/27 07:34:24;;;;;;;43.63;23.48;;;-0.10;99.90;;;;;;5074642;28;20052;-61
2021/12/27 07:36:55;;;;;;;43.67;22.83;;;-0.20;99.90;;;;;;5073498;28;20056;-62
2021/12/27 07:39:22;;;;;;;39.92;22.52;;;-0.20;99.90;;;;;;5074593;28;20697;-61
2021/12/27 07:41:48;;;;;;;41.55;20.83;;;-0.20;99.90;;;;;;5074629;28;20079;-61
2021/12/27 07:44:14;;;;;;;45.42;22.02;;;-0.20;99.90;;;;;;5074586;28;20509;-61
2021/12/27 07:46:45;;;;;;;42.85;22.60;;;-0.10;99.90;;;;;;5073402;28;20799;-61
2021/12/27 07:49:11;;;;;;;44.33;22.75;;;-0.10;99.90;;;;;;5073877;28;20052;-62
2021/12/27 07:51:40;;;;;;;43.08;21.50;;;-0.10;99.90;;;;;;5091862;28;20044;-61
2021/12/27 07:54:07;;;;;;;43.15;23.50;;;-0.10;99.90;;;;;;5090416;28;20840;-62
2021/12/27 07:56:33;;;;;;;44.90;23.65;;;-0.10;99.90;;;;;;5073081;28;20044;-62
2021/12/27 07:59:03;;;;;;;47.22;23.48;;;-0.10;99.90;;;;;;5074388;28;20048;-62
2021/12/27 08:01:31;;;;;;;53.85;24.85;;;0.00;99.90;;;;;;5073794;28;20056;-61
2021/12/27 08:03:57;;;;;;;48.53;24.30;;;-0.10;99.90;;;;;;5074163;28;20113;-62
2021/12/27 08:06:22;;;;;;;51.53;25.42;;;-0.10;99.90;;;;;;5073749;28;20037;-62
2021/12/27 08:08:48;;;;;;;48.13;24.58;;;0.00;99.90;;;;;;5073925;28;20485;-62
2021/12/27 08:11:14;;;;;;;50.28;25.02;;;0.00;99.90;;;;;;5073749;28;20055;-61
2021/12/27 08:13:42;;;;;;;50.78;24.48;;;0.00;99.90;;;;;;5073590;28;20064;-62
2021/12/27 08:16:09;;;;;;;55.97;26.52;;;0.00;99.90;;;;;;5072587;28;20048;-62
2021/12/27 08:18:35;;;;;;;50.67;25.40;;;0.00;99.90;;;;;;5074255;28;20057;-62
2021/12/27 08:21:01;;;;;;;48.13;24.58;;;0.00;99.90;;;;;;5073954;28;20082;-61
2021/12/27 08:23:27;;;;;;;47.97;24.58;;;0.00;99.90;;;;;;5073721;28;20045;-62
2021/12/27 08:25:53;;;;;;;48.65;25.65;;;0.10;99.90;;;;;;5073884;28;20079;-61
2021/12/27 08:28:19;;;;;;;48.28;24.45;;;0.00;99.90;;;;;;5073798;28;20595;-62
2021/12/27 08:30:45;;;;;;;47.78;25.45;;;0.10;99.90;;;;;;5073734;28;20044;-61
2021/12/27 08:33:11;;;;;;;52.60;25.30;;;0.00;99.90;;;;;;5073948;28;20113;-61
2021/12/27 08:35:37;;;;;;;52.88;25.35;;;0.00;99.90;;;;;;5073639;28;20040;-61
2021/12/27 08:38:04;;;;;;;51.00;24.80;;;0.00;99.90;;;;;;5073924;28;20036;-61
2021/12/27 08:40:30;;;;;;;49.58;25.45;;;0.10;99.90;;;;;;5072129;28;20056;-62
2021/12/27 08:42:56;;;;;;;52.60;27.33;;;0.00;99.90;;;;;;5063148;28;20080;-61
2021/12/27 08:45:21;;;;;;;55.33;25.27;;;0.00;99.90;;;;;;5081992;28;20051;-61
2021/12/27 08:47:47;;;;;;;52.85;26.05;;;0.00;99.90;;;;;;5080833;28;20072;-61
2021/12/27 08:50:17;;;;;;;53.03;25.70;;;0.00;99.90;;;;;;5080879;28;20051;-60
2021/12/27 08:52:47;;;;;;;54.30;26.38;;;0.10;99.90;;;;;;5096651;28;20989;-61
2021/12/27 08:55:13;;;;;;;51.25;26.25;;;0.00;99.90;;;;;;5085133;28;20052;-60
2021/12/27 08:57:40;;;;;;;53.65;23.90;;;0.10;99.90;;;;;;5077792;28;20474;-61
2021/12/27 09:00:10;;;;;;;50.85;23.25;;;0.00;99.90;;;;;;5075813;28;20480;-61
2021/12/27 09:02:36;;;;;;;53.00;25.35;;;0.10;99.90;;;;;;5059436;28;20904;-61
2021/12/27 09:05:04;;;;;;;60.88;26.30;;;0.00;99.90;;;;;;5077576;28;20049;-61
2021/12/27 09:07:30;;;;;;;59.00;26.02;;;0.10;99.90;;;;;;5075766;28;20647;-61
2021/12/27 09:09:55;;;;;;;64.22;26.90;;;0.10;99.90;;;;;;5077537;28;20072;-61
2021/12/27 09:12:21;;;;;;;58.20;25.75;;;0.10;99.90;;;;;;5077107;28;20045;-62
2021/12/27 09:14:47;;;;;;;62.72;28.30;;;0.10;99.90;;;;;;5075621;28;20048;-61
2021/12/27 09:17:13;;;;;;;55.42;26.08;;;0.10;99.90;;;;;;5076833;28;20052;-61
2021/12/27 09:19:39;;;;;;;68.80;27.80;;;0.20;99.90;;;;;;5076959;28;20056;-61
2021/12/27 09:22:05;;;;;;;61.33;27.88;;;0.20;99.90;;;;;;5075729;28;20595;-61
2021/12/27 09:24:32;;;;;;;62.65;26.00;;;0.20;99.90;;;;;;5076832;28;20041;-61
2021/12/27 09:26:58;;;;;;;62.90;26.17;;;0.20;99.90;;;;;;5077208;28;20513;-61
2021/12/27 09:29:25;;;;;;;67.50;29.10;;;0.30;99.90;;;;;;5077208;28;20049;-61
2021/12/27 09:31:51;;;;;;;68.47;27.50;;;0.30;99.90;;;;;;5076929;28;20091;-61
2021/12/27 09:34:18;;;;;;;68.85;26.58;;;0.20;99.90;;;;;;5077351;28;20053;-61
2021/12/27 09:36:44;;;;;;;62.97;29.92;;;0.30;99.90;;;;;;5077137;28;20040;-61
2021/12/27 09:39:10;;;;;;;62.05;25.75;;;0.30;99.90;;;;;;5080084;28;20048;-61
2021/12/27 09:41:36;;;;;;;62.50;26.50;;;0.30;99.90;;;;;;5080077;28;20048;-61
2021/12/27 09:44:04;;;;;;;64.80;29.83;;;0.30;99.90;;;;;;5078767;28;20032;-61
2021/12/27 09:46:29;;;;;;;71.25;28.73;;;0.30;99.90;;;;;;5078593;28;20036;-61
2021/12/27 09:48:59;;;;;;;69.07;26.80;;;0.30;99.90;;;;;;5078337;28;20045;-62
2021/12/27 09:51:26;;;;;;;63.08;25.60;;;0.30;99.90;;;;;;5095745;28;20538;-61
2021/12/27 09:53:53;;;;;;;60.92;27.52;;;0.50;99.90;;;;;;5097691;28;20087;-62
2021/12/27 09:56:18;;;;;;;64.65;26.60;;;0.40;99.90;;;;;;5082746;28;20048;-63
2021/12/27 09:58:44;;;;;;;64.10;27.08;;;0.40;99.90;;;;;;5060295;28;20053;-61
2021/12/27 10:01:10;;;;;;;65.30;27.98;;;0.50;99.90;;;;;;5077526;28;20075;-61
2021/12/27 10:03:51;;;;;;;61.13;28.27;;;0.40;99.90;;;;;;5089372;28;20099;-61
2021/12/27 10:06:19;;;;;;;58.53;27.00;;;0.40;99.90;;;;;;5088482;28;20045;-61
2021/12/27 10:08:50;;;;;;;62.40;28.25;;;0.50;99.90;;;;;;5087708;28;20055;-62
2021/12/27 10:11:32;;;;;;;61.47;27.88;;;0.40;99.90;;;;;;5089634;28;20452;-61
2021/12/27 10:14:05;;;;;;;59.40;27.27;;;0.50;99.90;;;;;;5084162;28;20048;-61
2021/12/27 10:16:33;;;;;;;58.95;26.00;;;0.60;99.90;;;;;;5086011;28;20079;-61
2021/12/27 10:19:03;;;;;;;57.63;25.48;;;0.50;99.90;;;;;;5088221;28;20512;-61
2021/12/27 10:21:29;;;;;;;63.53;26.85;;;0.50;99.90;;;;;;5084790;28;20091;-61
2021/12/27 10:24:06;;;;;;;58.70;26.70;;;0.50;99.90;;;;;;5068514;28;20040;-61
2021/12/27 10:26:33;;;;;;;63.25;27.27;;;0.60;99.90;;;;;;5085987;28;20071;-62
2021/12/27 10:29:22;;;;;;;54.58;25.38;;;0.60;99.90;;;;;;5093527;28;20101;-61
2021/12/27 10:32:08;;;;;;;55.40;26.48;;;0.50;99.90;;;;;;5098039;28;20048;-61
2021/12/27 10:34:44;;;;;;;56.20;25.02;;;0.60;99.90;;;;;;5097277;28;20079;-61
2021/12/27 10:37:14;;;;;;;57.00;26.65;;;0.50;99.90;;;;;;5097519;28;20074;-60
2021/12/27 10:39:52;;;;;;;58.47;24.00;;;0.60;99.90;;;;;;5098957;28;20100;-61
2021/12/27 10:42:22;;;;;;;49.83;24.73;;;0.70;99.90;;;;;;5099154;28;20048;-61
2021/12/27 10:44:51;;;;;;;61.17;26.27;;;0.60;99.90;;;;;;5098705;28;20050;-62
2021/12/27 10:47:25;;;;;;;54.17;24.98;;;0.60;99.90;;;;;;5088702;28;20491;-61
2021/12/27 10:49:52;;;;;;;56.35;25.77;;;0.80;99.90;;;;;;5079931;28;20096;-61
2021/12/27 10:52:18;;;;;;;80.78;29.83;;;0.80;99.90;;;;;;5098744;28;20052;-61
2021/12/27 10:54:44;;;;;;;72.93;27.02;;;0.80;99.90;;;;;;5090274;28;20499;-61
2021/12/27 10:57:10;;;;;;;77.47;28.23;;;0.80;99.90;;;;;;5078522;28;20052;-61
2021/12/27 10:59:36;;;;;;;73.70;28.02;;;0.80;99.90;;;;;;5078441;28;20043;-62
2021/12/27 11:02:13;;;;;;;75.90;29.20;;;0.80;99.90;;;;;;5078260;28;20092;-61
2021/12/27 11:04:40;;;;;;;78.03;26.63;;;0.90;99.90;;;;;;5076592;28;20044;-61
2021/12/27 11:07:06;;;;;;;97.63;28.52;;;0.90;99.90;;;;;;5076510;28;20048;-61
2021/12/27 11:09:33;;;;;;;92.97;30.77;;;1.00;99.90;;;;;;5083743;28;20043;-61
2021/12/27 11:12:00;;;;;;;84.57;29.23;;;1.10;99.90;;;;;;5077846;28;20051;-59
2021/12/27 11:14:26;;;;;;;82.20;29.13;;;1.00;99.90;;;;;;5069660;28;20080;-61
2021/12/27 11:16:53;;;;;;;102.53;32.13;;;1.10;99.90;;;;;;5070628;28;20550;-61
2021/12/27 11:19:19;;;;;;;79.53;27.65;;;1.20;99.90;;;;;;5070733;28;20044;-60
2021/12/27 11:21:48;;;;;;;82.30;28.92;;;1.10;99.90;;;;;;5071364;28;20071;-60
2021/12/27 11:24:14;;;;;;;90.18;30.40;;;1.10;99.90;;;;;;5070666;28;20124;-62
2021/12/27 11:26:41;;;;;;;87.18;30.27;;;1.20;99.90;;;;;;5071188;28;20067;-58
2021/12/27 11:29:15;;;;;;;80.30;30.85;;;1.10;99.90;;;;;;5069497;28;20044;-58
2021/12/27 11:31:43;;;;;;;79.07;28.52;;;1.20;99.90;;;;;;5071792;28;20070;-60
2021/12/27 11:34:12;;;;;;;73.28;29.40;;;1.30;99.90;;;;;;5070722;28;20139;-59
2021/12/27 11:36:41;;;;;;;82.20;31.65;;;1.30;99.90;;;;;;5071224;28;20691;-59
2021/12/27 11:39:28;;;;;;;81.20;29.45;;;1.30;99.90;;;;;;5071428;28;20663;-59
2021/12/27 11:42:03;;;;;;;82.75;29.85;;;1.40;99.90;;;;;;5070828;28;20538;-58
2021/12/27 11:44:38;;;;;;;88.80;29.08;;;1.40;99.90;;;;;;5072175;28;20105;-59
2021/12/27 11:47:05;;;;;;;83.85;28.05;;;1.30;99.90;;;;;;5072223;28;20444;-59
2021/12/27 11:49:43;;;;;;;80.38;28.52;;;1.40;99.90;;;;;;5072304;28;20054;-59
2021/12/27 11:52:31;;;;;;;100.05;29.50;;;1.40;99.90;;;;;;5070772;28;20695;-59
2021/12/27 11:55:20;;;;;;;101.85;30.27;;;1.40;99.90;;;;;;5070416;28;20047;-59
2021/12/27 11:57:47;;;;;;;95.80;28.27;;;1.30;99.90;;;;;;5073397;28;20163;-59
2021/12/27 12:00:19;;;;;;;90.68;30.25;;;1.30;99.90;;;;;;5070100;28;20052;-59
2021/12/27 12:02:52;;;;;;;98.10;30.33;;;1.30;99.90;;;;;;5072168;28;20048;-59
2021/12/27 12:05:39;;;;;;;92.10;28.40;;;1.30;99.90;;;;;;5071393;28;20458;-59
2021/12/27 12:08:06;;;;;;;94.28;28.05;;;1.30;99.90;;;;;;5069097;28;20127;-59
2021/12/27 12:10:33;;;;;;;84.05;28.48;;;1.20;99.90;;;;;;5069036;28;20744;-58
2021/12/27 12:13:19;;;;;;;101.68;29.65;;;1.30;99.90;;;;;;5069535;28;20044;-59
2021/12/27 12:16:01;;;;;;;109.03;31.85;;;1.30;99.90;;;;;;5070034;28;20135;-59
2021/12/27 12:18:29;;;;;;;127.22;32.83;;;1.30;99.90;;;;;;5070729;28;20051;-58
2021/12/27 12:20:55;;;;;;;108.53;32.10;;;1.30;99.90;;;;;;5069457;28;20041;-58
2021/12/27 12:23:21;;;;;;;102.35;33.10;;;1.40;99.90;;;;;;5070389;28;20055;-59
2021/12/27 12:25:56;;;;;;;124.00;31.85;;;1.40;99.90;;;;;;5070162;28;20040;-59
2021/12/27 12:28:21;;;;;;;84.13;28.90;;;1.50;99.90;;;;;;5070605;28;20053;-58
2021/12/27 12:30:50;;;;;;;102.57;31.08;;;1.50;99.90;;;;;;5070497;28;20102;-59
2021/12/27 12:33:19;;;;;;;106.97;31.50;;;1.50;99.90;;;;;;5070159;28;20046;-61
2021/12/27 12:35:46;;;;;;;99.00;31.60;;;1.50;99.90;;;;;;5070704;28;20043;-59